Time;durP1;ratioP1;P1;durP2;ratioP2;P2;SDS_P1;SDS_P2;PMS_P1;PMS_P2;Temp;Humidity;BMP_temperature;BMP_pressure;BME280_temperature;BME280_humidity;BME280_pressure;Samples;Min_cycle;Max_cycle;Signal;HPM_P1;HPM_P2
2023/02/22 00:04:06;;;;;;;6.30;4.40;;;;;;;7.45;80.50;97025.77;110143;1244;59679;-67
2023/02/22 00:06:34;;;;;;;6.20;4.50;;;;;;;7.43;80.18;97027.43;110144;1241;72135;-67
2023/02/22 00:09:05;;;;;;;5.10;4.20;;;;;;;7.39;80.55;97033.97;110156;1241;70422;-67
2023/02/22 00:11:35;;;;;;;5.50;4.70;;;;;;;7.36;80.54;97036.59;110155;1244;70238;-67
2023/02/22 00:14:04;;;;;;;5.40;4.20;;;;;;;7.34;80.15;97035.70;110163;1241;59779;-67
2023/02/22 00:16:33;;;;;;;6.20;4.40;;;;;;;7.31;80.42;97037.44;110163;1245;59725;-67
2023/02/22 00:19:04;;;;;;;6.90;4.90;;;;;;;7.27;80.61;97038.52;110145;1244;71997;-68
2023/02/22 00:21:33;;;;;;;5.60;4.10;;;;;;;7.31;79.83;97039.69;110180;1245;69154;-68
2023/02/22 00:24:21;;;;;;;5.20;4.20;;;;;;;7.30;80.25;97040.96;110103;1241;69187;-68
2023/02/22 00:26:54;;;;;;;4.90;3.70;;;;;;;7.31;79.87;97039.13;110159;1241;59669;-68
2023/02/22 00:29:24;;;;;;;6.00;4.30;;;;;;;7.33;79.73;97034.38;110159;1241;59773;-67
2023/02/22 00:31:54;;;;;;;4.50;3.90;;;;;;;7.32;79.67;97040.98;110135;1244;70528;-68
2023/02/22 00:34:23;;;;;;;6.00;4.00;;;;;;;7.33;79.55;97039.75;110174;1241;68740;-68
2023/02/22 00:36:53;;;;;;;;;;;;;;;7.32;79.33;97040.14;110158;1244;69340;-68
2023/02/22 00:39:22;;;;;;;5.10;3.70;;;;;;;7.30;79.41;97038.52;110144;1244;59741;-68
2023/02/22 00:41:52;;;;;;;6.30;4.50;;;;;;;7.29;79.56;97040.66;110161;1243;59678;-68
2023/02/22 00:44:22;;;;;;;5.90;4.50;;;;;;;7.27;79.30;97043.59;109858;1241;71400;-68
2023/02/22 00:46:51;;;;;;;4.90;4.10;;;;;;;7.26;79.12;97044.67;110136;1241;68749;-68
2023/02/22 00:49:22;;;;;;;4.70;4.10;;;;;;;7.26;78.96;97042.95;110137;1243;69874;-66
2023/02/22 00:51:53;;;;;;;4.30;3.70;;;;;;;7.25;79.06;97041.63;110104;1241;59737;-66
2023/02/22 00:54:23;;;;;;;5.60;4.40;;;;;;;7.25;78.91;97038.66;110156;1244;59705;-66
2023/02/22 00:56:52;;;;;;;4.70;4.10;;;;;;;7.25;79.00;97037.29;110161;1241;72321;-66
2023/02/22 00:59:21;;;;;;;4.50;4.00;;;;;;;7.24;78.98;97033.36;110117;1243;69096;-66
2023/02/22 01:01:51;;;;;;;5.20;4.10;;;;;;;7.25;78.86;97034.88;110169;1243;69420;-67
2023/02/22 01:04:21;;;;;;;6.30;4.70;;;;;;;7.27;78.80;97032.85;110160;1244;59709;-66
2023/02/22 01:06:52;;;;;;;4.90;4.10;;;;;;;7.29;78.62;97034.75;110182;1244;59777;-66
2023/02/22 01:09:21;;;;;;;4.20;3.60;;;;;;;7.30;78.80;97040.11;110147;1241;71098;-66
2023/02/22 01:11:55;;;;;;;5.10;4.60;;;;;;;7.28;78.72;97035.53;110158;1244;68573;-66
2023/02/22 01:14:26;;;;;;;5.00;4.10;;;;;;;7.27;78.84;97034.93;109810;1245;69978;-66
2023/02/22 01:16:57;;;;;;;5.50;4.60;;;;;;;7.25;78.86;97036.41;109793;1245;59685;-67
2023/02/22 01:19:26;;;;;;;4.80;4.20;;;;;;;7.26;78.85;97033.75;110197;1243;59741;-67
2023/02/22 01:21:56;;;;;;;5.30;4.30;;;;;;;7.27;78.72;97039.28;110208;1245;70309;-68
2023/02/22 01:24:25;;;;;;;5.00;4.00;;;;;;;7.24;78.89;97035.84;110190;1244;69094;-67
2023/02/22 01:26:55;;;;;;;5.00;4.00;;;;;;;7.23;78.64;97037.63;110122;1244;70207;-67
2023/02/22 01:29:24;;;;;;;4.10;3.70;;;;;;;7.21;78.54;97039.14;110137;1244;59737;-67
2023/02/22 01:31:55;;;;;;;6.10;4.10;;;;;;;7.17;78.85;97036.78;110073;1245;59809;-67
2023/02/22 01:34:25;;;;;;;5.30;4.30;;;;;;;7.14;78.88;97034.85;110160;1245;71276;-68
2023/02/22 01:36:55;;;;;;;5.10;4.40;;;;;;;7.14;78.76;97035.08;110199;1241;68604;-67
2023/02/22 01:39:26;;;;;;;6.50;4.90;;;;;;;7.14;78.45;97031.25;110206;1242;69874;-67
2023/02/22 01:41:56;;;;;;;5.90;4.60;;;;;;;7.13;78.37;97031.45;110190;1241;59731;-69
2023/02/22 01:44:33;;;;;;;5.40;4.10;;;;;;;7.12;78.23;97034.29;110153;1244;59730;-68
2023/02/22 01:47:05;;;;;;;5.10;4.20;;;;;;;7.11;77.99;97031.79;110176;1246;71934;-66
2023/02/22 01:49:45;;;;;;;6.60;4.60;;;;;;;7.10;78.02;97037.91;110076;1245;69286;-67
2023/02/22 01:52:19;;;;;;;6.00;4.30;;;;;;;7.10;77.80;97041.36;110154;1241;69441;-67
2023/02/22 01:54:56;;;;;;;5.70;4.00;;;;;;;7.09;77.66;97038.12;110140;1243;59740;-67
2023/02/22 01:57:33;;;;;;;5.20;3.70;;;;;;;7.10;77.30;97038.44;110118;1245;59756;-67
2023/02/22 02:00:13;;;;;;;6.90;4.20;;;;;;;7.10;77.26;97038.43;110038;1245;69814;-67
2023/02/22 02:02:52;;;;;;;5.90;4.30;;;;;;;7.09;77.04;97045.06;110197;1244;68544;-67
2023/02/22 02:05:30;;;;;;;5.00;4.30;;;;;;;7.10;76.88;97043.81;109997;1245;69638;-67
2023/02/22 02:08:13;;;;;;;5.70;4.60;;;;;;;7.10;76.89;97041.86;110151;1245;59677;-67
2023/02/22 02:10:43;;;;;;;6.10;4.40;;;;;;;7.10;76.98;97043.94;110155;1243;59707;-67
2023/02/22 02:13:15;;;;;;;4.80;3.60;;;;;;;7.09;77.29;97049.23;110102;1250;71380;-67
2023/02/22 02:15:48;;;;;;;4.40;3.60;;;;;;;7.08;77.22;97044.82;110131;1241;68397;-67
2023/02/22 02:18:18;;;;;;;5.10;3.90;;;;;;;7.05;77.55;97047.92;110165;1241;69301;-68
2023/02/22 02:21:01;;;;;;;4.60;3.70;;;;;;;7.06;77.54;97048.21;110154;1243;59795;-66
2023/02/22 02:23:30;;;;;;;4.60;4.10;;;;;;;7.04;77.90;97049.90;110136;1244;59698;-67
2023/02/22 02:26:26;;;;;;;4.30;3.90;;;;;;;7.03;78.06;97049.66;109825;1245;71381;-67
2023/02/22 02:29:31;;;;;;;5.60;4.30;;;;;;;7.00;78.16;97051.55;110183;1241;68506;-67
2023/02/22 02:32:13;;;;;;;4.40;3.90;;;;;;;6.98;78.16;97048.61;110122;1244;69166;-67
2023/02/22 02:34:49;;;;;;;4.80;3.80;;;;;;;6.97;77.82;97053.33;110129;1243;59750;-66
2023/02/22 02:37:35;;;;;;;5.00;4.40;;;;;;;6.96;78.17;97055.83;110119;1241;59675;-67
2023/02/22 02:40:11;;;;;;;4.30;3.90;;;;;;;6.96;78.06;97053.05;110143;1241;70443;-67
2023/02/22 02:42:49;;;;;;;4.60;4.10;;;;;;;6.98;77.92;97049.79;110132;1243;70047;-67
2023/02/22 02:45:28;;;;;;;4.60;3.40;;;;;;;6.97;77.84;97052.93;109806;1245;69844;-67
2023/02/22 02:48:02;;;;;;;4.90;4.00;;;;;;;6.98;77.82;97055.33;110200;1241;59736;-66
2023/02/22 02:50:40;;;;;;;4.50;3.70;;;;;;;6.98;77.85;97059.31;110153;1241;59706;-67
2023/02/22 02:53:13;;;;;;;4.20;3.80;;;;;;;6.96;77.76;97058.57;110184;1244;72306;-67
2023/02/22 02:55:42;;;;;;;5.20;4.10;;;;;;;6.95;77.84;97061.59;110143;1251;68793;-67
2023/02/22 02:58:20;;;;;;;;;;;;;;;6.93;77.89;97059.30;110152;1241;68246;-67
2023/02/22 03:01:00;;;;;;;6.20;4.00;;;;;;;6.89;77.96;97056.58;110108;1241;59694;-67
2023/02/22 03:03:48;;;;;;;4.60;3.90;;;;;;;6.88;77.94;97060.63;109969;1245;59688;-67
2023/02/22 03:06:39;;;;;;;4.70;3.80;;;;;;;6.88;78.04;97061.70;110172;1243;71404;-67
2023/02/22 03:09:21;;;;;;;5.20;4.50;;;;;;;6.85;78.46;97066.86;110152;1243;68750;-68
2023/02/22 03:12:06;;;;;;;5.10;3.60;;;;;;;6.84;78.31;97069.38;110154;1245;69880;-66
2023/02/22 03:15:21;;;;;;;4.50;3.90;;;;;;;6.83;78.42;97071.54;110219;1243;59757;-67
2023/02/22 03:18:16;;;;;;;4.70;4.10;;;;;;;6.81;78.46;97073.37;109541;1247;59686;-67
2023/02/22 03:21:07;;;;;;;5.20;4.70;;;;;;;6.79;79.01;97072.46;109927;1245;70818;-67
2023/02/22 03:23:42;;;;;;;7.00;4.50;;;;;;;6.78;79.06;97071.46;110151;1244;69445;-67
2023/02/22 03:26:24;;;;;;;5.00;4.10;;;;;;;6.76;79.19;97070.61;110137;1241;69902;-67
2023/02/22 03:28:58;;;;;;;5.80;3.80;;;;;;;6.74;78.97;97074.02;109846;1245;59737;-67
2023/02/22 03:31:36;;;;;;;5.90;4.00;;;;;;;6.71;78.60;97075.60;109960;1245;59599;-67
2023/02/22 03:34:15;;;;;;;5.00;4.20;;;;;;;6.68;78.95;97081.83;110119;1241;70637;-67
2023/02/22 03:37:00;;;;;;;5.90;4.40;;;;;;;6.65;79.21;97080.09;110126;1244;68833;-67
2023/02/22 03:39:33;;;;;;;7.70;4.70;;;;;;;6.62;80.26;97084.11;110108;1243;68421;-67
2023/02/22 03:42:13;;;;;;;6.40;4.60;;;;;;;6.60;80.44;97088.52;109938;1245;59721;-68
2023/02/22 03:44:46;;;;;;;5.20;4.60;;;;;;;6.62;80.38;97088.09;109823;1243;59692;-67
2023/02/22 03:47:29;;;;;;;4.70;3.90;;;;;;;6.63;80.45;97091.63;109758;1243;71373;-67
2023/02/22 03:50:06;;;;;;;5.10;4.10;;;;;;;6.63;79.92;97092.34;109798;1244;69032;-67
2023/02/22 03:52:37;;;;;;;6.60;4.80;;;;;;;6.61;80.36;97091.58;109745;1245;68425;-67
2023/02/22 03:55:16;;;;;;;4.80;4.20;;;;;;;6.60;79.79;97087.85;109794;1244;59750;-66
2023/02/22 03:57:54;;;;;;;5.30;4.10;;;;;;;6.58;80.41;97090.39;109718;1245;59767;-66
2023/02/22 04:00:28;;;;;;;5.20;4.30;;;;;;;6.57;80.55;97096.14;109741;1244;70614;-67
2023/02/22 04:02:59;;;;;;;5.00;4.40;;;;;;;6.57;80.47;97096.19;109779;1242;69220;-67
2023/02/22 04:05:29;;;;;;;6.90;4.30;;;;;;;6.53;80.85;97095.73;109796;1244;68550;-67
2023/02/22 04:08:00;;;;;;;4.70;4.00;;;;;;;6.54;80.58;97100.70;109739;1243;59709;-67
2023/02/22 04:10:32;;;;;;;5.00;4.20;;;;;;;6.50;81.18;97100.78;109835;1244;59702;-67
2023/02/22 04:13:07;;;;;;;6.10;4.60;;;;;;;6.50;80.61;97103.73;109895;1243;70465;-67
2023/02/22 04:15:41;;;;;;;5.30;4.60;;;;;;;6.47;81.16;97096.96;109763;1242;69378;-67
2023/02/22 04:18:12;;;;;;;6.30;4.10;;;;;;;6.46;81.11;97101.67;109753;1243;69809;-67
2023/02/22 04:20:43;;;;;;;4.50;3.80;;;;;;;6.45;81.02;97100.88;109711;1244;59766;-67
2023/02/22 04:23:22;;;;;;;4.90;3.80;;;;;;;6.43;80.84;97101.86;109856;1244;59641;-67
2023/02/22 04:25:54;;;;;;;5.20;3.90;;;;;;;6.41;80.58;97104.79;109810;1244;72307;-67
2023/02/22 04:28:23;;;;;;;5.50;4.50;;;;;;;6.37;80.77;97105.52;109889;1244;68793;-67
2023/02/22 04:31:15;;;;;;;6.10;4.70;;;;;;;6.33;81.13;97112.68;109853;1245;69504;-68
2023/02/22 04:33:46;;;;;;;5.30;4.10;;;;;;;6.31;80.89;97111.45;110065;1243;59747;-67
2023/02/22 04:36:20;;;;;;;5.40;4.90;;;;;;;6.28;81.38;97111.27;109904;1244;59741;-67
2023/02/22 04:38:50;;;;;;;6.70;6.00;;;;;;;6.25;81.10;97108.17;109924;1243;71402;-67
2023/02/22 04:41:21;;;;;;;6.50;5.40;;;;;;;6.22;81.72;97107.17;110012;1244;69785;-67
2023/02/22 04:43:54;;;;;;;6.60;5.40;;;;;;;6.18;81.24;97107.72;110113;1244;68287;-68
2023/02/22 04:46:26;;;;;;;6.30;5.40;;;;;;;6.14;81.81;97107.27;110131;1245;59744;-68
2023/02/22 04:48:56;;;;;;;8.20;6.00;;;;;;;6.10;81.63;97105.05;110152;1244;59668;-68
2023/02/22 04:51:29;;;;;;;6.50;5.70;;;;;;;6.07;81.69;97103.36;110148;1244;71855;-68
2023/02/22 04:54:02;;;;;;;6.60;5.40;;;;;;;6.04;81.74;97105.58;110124;1244;69577;-68
2023/02/22 04:56:33;;;;;;;7.40;6.10;;;;;;;6.02;82.06;97112.84;109917;1245;69886;-68
2023/02/22 04:59:04;;;;;;;7.20;6.00;;;;;;;5.96;83.47;97113.88;109985;1245;59716;-67
2023/02/22 05:01:35;;;;;;;;;;;;;;;5.91;83.08;97117.94;109990;1241;59800;-67
2023/02/22 05:04:06;;;;;;;6.30;5.20;;;;;;;5.84;83.94;97122.17;109961;1245;70458;-67
2023/02/22 05:06:35;;;;;;;6.70;5.70;;;;;;;5.78;84.72;97124.58;110142;1244;69077;-68
2023/02/22 05:09:05;;;;;;;;;;;;;;;5.73;84.43;97130.10;110154;1244;69693;-67
2023/02/22 05:11:34;;;;;;;4.80;4.10;;;;;;;5.63;84.25;97135.98;110116;1245;59706;-66
2023/02/22 05:14:04;;;;;;;6.00;4.90;;;;;;;5.54;84.83;97133.05;110165;1244;59744;-67
2023/02/22 05:16:34;;;;;;;7.20;5.20;;;;;;;5.46;84.13;97131.61;110135;1241;70633;-67
2023/02/22 05:19:04;;;;;;;6.20;5.30;;;;;;;5.39;84.79;97127.53;110138;1241;69372;-67
2023/02/22 05:21:33;;;;;;;8.30;6.00;;;;;;;5.33;84.77;97122.48;110164;1251;69219;-66
2023/02/22 05:24:03;;;;;;;7.50;5.70;;;;;;;5.27;84.54;97122.28;110109;1241;60165;-66
2023/02/22 05:26:32;;;;;;;8.80;6.20;;;;;;;5.21;83.68;97129.55;110134;1243;60062;-67
2023/02/22 05:29:01;;;;;;;7.80;5.90;;;;;;;5.10;85.64;97138.95;110131;1241;71963;-67
2023/02/22 05:31:31;;;;;;;8.30;6.30;;;;;;;4.98;85.25;97144.30;110140;1243;69708;-67
2023/02/22 05:34:00;;;;;;;8.60;6.40;;;;;;;4.79;86.14;97148.94;110149;1241;69225;-67
2023/02/22 05:36:29;;;;;;;8.60;6.80;;;;;;;4.63;86.12;97154.13;110135;1243;59676;-67
2023/02/22 05:38:58;;;;;;;8.40;6.70;;;;;;;4.49;86.09;97155.20;110151;1244;60107;-67
2023/02/22 05:41:28;;;;;;;8.00;6.30;;;;;;;4.39;86.78;97159.53;110161;1243;71387;-67
2023/02/22 05:43:57;;;;;;;8.10;6.40;;;;;;;4.34;87.71;97156.14;110240;1241;69884;-67
2023/02/22 05:46:27;;;;;;;6.90;5.90;;;;;;;4.40;90.22;97162.58;110221;1240;70255;-67
2023/02/22 05:48:56;;;;;;;7.30;5.60;;;;;;;4.41;89.17;97166.48;110219;1240;59687;-67
2023/02/22 05:51:25;;;;;;;6.40;5.30;;;;;;;4.48;89.94;97169.77;110285;1242;59631;-67
2023/02/22 05:53:54;;;;;;;7.20;5.60;;;;;;;4.51;89.44;97174.27;110257;1242;71116;-67
2023/02/22 05:56:26;;;;;;;6.50;5.10;;;;;;;4.58;89.46;97179.23;110226;1242;69315;-67
2023/02/22 05:58:57;;;;;;;6.40;5.30;;;;;;;4.68;87.88;97178.71;110195;1242;68881;-67
2023/02/22 06:01:26;;;;;;;5.70;5.10;;;;;;;4.81;87.61;97179.75;110230;1241;59658;-67
2023/02/22 06:03:55;;;;;;;6.30;5.00;;;;;;;4.96;87.43;97184.64;110223;1240;59744;-67
2023/02/22 06:06:23;;;;;;;5.80;5.10;;;;;;;5.14;87.18;97188.70;110211;1241;71799;-67
2023/02/22 06:08:53;;;;;;;7.60;4.90;;;;;;;5.28;86.91;97188.27;110238;1242;68463;-66
2023/02/22 06:11:22;;;;;;;6.40;5.30;;;;;;;5.38;86.21;97186.17;110218;1242;69310;-67
2023/02/22 06:13:52;;;;;;;6.70;5.10;;;;;;;5.45;85.84;97189.92;110241;1242;59719;-67
2023/02/22 06:16:22;;;;;;;7.90;5.60;;;;;;;5.51;85.35;97195.97;110210;1240;59766;-68
2023/02/22 06:18:51;;;;;;;10.00;7.70;;;;;;;5.57;85.09;97196.49;110250;1242;71458;-68
2023/02/22 06:21:20;;;;;;;17.10;13.40;;;;;;;5.60;84.40;97198.74;110254;1240;69238;-68
2023/02/22 06:23:49;;;;;;;15.90;13.10;;;;;;;5.58;83.88;97199.02;110254;1242;69881;-67
2023/02/22 06:26:18;;;;;;;18.60;15.00;;;;;;;5.52;83.76;97204.23;110217;1242;59630;-67
2023/02/22 06:28:48;;;;;;;17.40;14.20;;;;;;;5.44;83.93;97214.71;110247;1242;59692;-67
2023/02/22 06:31:17;;;;;;;17.90;13.20;;;;;;;5.41;83.89;97220.55;110197;1241;71360;-68
2023/02/22 06:33:46;;;;;;;15.80;12.50;;;;;;;5.42;85.64;97224.31;110254;1242;69819;-68
2023/02/22 06:36:14;;;;;;;11.50;10.30;;;;;;;5.51;84.82;97227.08;110220;1242;69274;-68
2023/02/22 06:38:44;;;;;;;11.80;9.90;;;;;;;5.73;84.70;97229.67;110248;1242;59750;-68
2023/02/22 06:41:14;;;;;;;13.20;10.90;;;;;;;5.97;84.32;97232.45;110244;1242;59680;-68
2023/02/22 06:43:46;;;;;;;12.50;11.20;;;;;;;6.28;84.41;97235.73;110221;1241;71833;-68
2023/02/22 06:46:15;;;;;;;13.60;11.10;;;;;;;6.72;84.21;97241.76;110241;1242;69820;-68
2023/02/22 06:48:44;;;;;;;10.90;9.40;;;;;;;7.08;84.07;97238.88;110263;1242;69936;-68
2023/02/22 06:51:12;;;;;;;13.10;10.40;;;;;;;7.36;83.87;97233.31;110225;1241;59763;-68
2023/02/22 06:53:42;;;;;;;11.80;10.20;;;;;;;7.60;82.73;97234.76;110218;1242;59688;-68
2023/02/22 06:56:11;;;;;;;13.50;11.90;;;;;;;7.98;82.27;97239.98;110198;1240;72169;-68
2023/02/22 06:58:40;;;;;;;13.00;11.30;;;;;;;8.13;76.89;97240.37;110177;1240;69394;-68
2023/02/22 07:01:09;;;;;;;8.20;7.10;;;;;;;8.07;74.72;97236.94;110228;1241;69861;-68
2023/02/22 07:03:38;;;;;;;7.50;6.50;;;;;;;8.05;75.55;97240.69;110273;1240;59683;-68
2023/02/22 07:06:07;;;;;;;7.70;6.30;;;;;;;8.17;74.27;97244.07;110222;1242;59680;-66
2023/02/22 07:08:36;;;;;;;7.50;5.60;;;;;;;8.32;75.11;97241.91;110169;1242;71985;-68
2023/02/22 07:11:05;;;;;;;7.10;5.60;;;;;;;8.47;75.45;97243.36;110201;1242;69171;-68
2023/02/22 07:13:34;;;;;;;7.70;5.70;;;;;;;8.78;73.74;97245.23;110204;1241;69080;-68
2023/02/22 07:16:03;;;;;;;7.40;5.60;;;;;;;9.21;70.87;97246.10;110163;1241;59698;-68
2023/02/22 07:18:32;;;;;;;8.30;6.40;;;;;;;9.59;70.46;97243.38;110201;1240;59776;-69
2023/02/22 07:21:00;;;;;;;7.00;5.70;;;;;;;9.75;66.76;97244.02;110181;1241;71960;-67
2023/02/22 07:23:29;;;;;;;7.90;5.80;;;;;;;9.72;65.74;97247.16;110257;1242;69817;-68
2023/02/22 07:26:04;;;;;;;6.90;5.10;;;;;;;9.42;65.52;97242.02;110111;1240;69557;-67
2023/02/22 07:28:33;;;;;;;6.70;4.70;;;;;;;9.15;66.14;97246.33;110083;1243;59857;-68
2023/02/22 07:31:03;;;;;;;9.10;5.10;;;;;;;9.30;66.23;97253.69;110242;1242;59639;-67
2023/02/22 07:33:32;;;;;;;6.10;4.30;;;;;;;9.18;65.21;97259.52;110281;1240;71353;-69
2023/02/22 07:36:01;;;;;;;5.70;4.90;;;;;;;9.34;66.73;97260.35;110271;1242;70193;-67
2023/02/22 07:38:31;;;;;;;6.50;5.10;;;;;;;9.13;65.29;97263.16;110143;1244;70270;-67
2023/02/22 07:41:00;;;;;;;6.90;5.10;;;;;;;8.88;66.40;97261.91;110224;1242;60034;-67
2023/02/22 07:43:30;;;;;;;6.80;5.90;;;;;;;8.76;66.75;97265.73;110221;1248;59740;-67
2023/02/22 07:46:01;;;;;;;6.50;5.30;;;;;;;8.58;67.78;97266.95;109957;1242;429846;-70
2023/02/22 07:48:31;;;;;;;7.10;5.60;;;;;;;8.61;68.41;97264.43;110134;1241;68652;-68
2023/02/22 07:50:59;;;;;;;6.70;5.90;;;;;;;8.52;68.50;97266.51;110227;1242;68705;-66
2023/02/22 07:53:32;;;;;;;7.90;5.70;;;;;;;8.52;68.28;97266.66;110221;1242;59742;-66
2023/02/22 07:56:04;;;;;;;9.00;7.30;;;;;;;8.50;68.43;97267.45;110319;1242;59601;-67
2023/02/22 07:58:34;;;;;;;6.80;5.70;;;;;;;8.55;68.93;97267.27;110231;1242;69663;-66
2023/02/22 08:01:03;;;;;;;11.40;7.50;;;;;;;8.59;68.33;97265.45;110262;1242;69857;-66
2023/02/22 08:03:35;;;;;;;8.70;7.40;;;;;;;8.60;68.38;97266.47;110223;1242;69144;-66
2023/02/22 08:06:06;;;;;;;9.70;6.40;;;;;;;8.57;68.51;97266.66;110300;1241;59718;-66
2023/02/22 08:08:34;;;;;;;9.10;7.60;;;;;;;8.55;67.50;97271.52;110207;1242;59692;-67
2023/02/22 08:11:04;;;;;;;10.10;7.50;;;;;;;8.49;68.35;97272.24;110167;1243;72442;-66
2023/02/22 08:13:33;;;;;;;8.50;7.40;;;;;;;8.39;68.78;97272.86;110216;1240;69234;-66
2023/02/22 08:16:02;;;;;;;7.80;6.80;;;;;;;8.35;69.97;97277.65;110242;1241;69875;-68
2023/02/22 08:18:31;;;;;;;8.60;6.30;;;;;;;8.30;69.26;97275.39;110287;1246;59792;-67
2023/02/22 08:21:00;;;;;;;7.40;6.60;;;;;;;8.28;69.78;97273.08;110386;1240;60123;-67
2023/02/22 08:23:29;;;;;;;7.10;5.60;;;;;;;8.28;68.70;97272.02;110332;1242;70643;-67
2023/02/22 08:26:08;;;;;;;8.40;5.90;;;;;;;8.37;68.20;97274.55;110198;1240;68359;-67
2023/02/22 08:28:36;;;;;;;7.10;6.00;;;;;;;8.46;67.72;97281.64;110152;1242;69719;-67
2023/02/22 08:31:07;;;;;;;7.00;5.80;;;;;;;8.45;66.23;97284.16;110183;1241;59750;-66
2023/02/22 08:33:36;;;;;;;6.00;5.40;;;;;;;8.41;66.19;97281.61;110156;1242;59678;-67
2023/02/22 08:36:05;;;;;;;8.10;5.30;;;;;;;8.45;65.35;97284.13;110202;1242;71713;-67
2023/02/22 08:38:34;;;;;;;8.80;5.40;;;;;;;8.50;66.36;97284.11;110237;1240;68279;-67
2023/02/22 08:41:03;;;;;;;6.70;4.90;;;;;;;8.53;65.38;97282.92;110144;1241;69242;-66
2023/02/22 08:43:32;;;;;;;8.80;6.00;;;;;;;8.53;65.47;97284.64;110195;1242;59754;-67
2023/02/22 08:46:00;;;;;;;8.10;5.10;;;;;;;8.39;64.05;97289.53;110187;1241;59693;-67
2023/02/22 08:48:29;;;;;;;5.40;4.20;;;;;;;8.43;64.33;97288.23;110184;1242;70582;-67
2023/02/22 08:50:58;;;;;;;8.00;6.20;;;;;;;8.47;63.35;97289.24;110162;1241;69212;-67
2023/02/22 08:53:26;;;;;;;6.00;4.10;;;;;;;8.50;63.97;97289.02;110196;1242;68566;-67
2023/02/22 08:55:55;;;;;;;6.10;3.90;;;;;;;8.57;62.73;97288.34;110190;1240;59708;-67
2023/02/22 08:58:24;;;;;;;4.50;3.50;;;;;;;8.81;63.32;97288.69;110159;1241;59657;-68
2023/02/22 09:00:53;;;;;;;4.30;3.00;;;;;;;9.08;62.82;97290.63;110051;1244;71960;-68
2023/02/22 09:03:21;;;;;;;4.40;2.90;;;;;;;9.34;62.56;97294.58;110212;1243;69967;-67
2023/02/22 09:05:50;;;;;;;4.90;3.20;;;;;;;9.57;61.07;97291.62;110189;1248;69936;-67
2023/02/22 09:08:20;;;;;;;5.30;3.80;;;;;;;9.70;60.59;97290.70;110209;1242;59670;-67
2023/02/22 09:10:49;;;;;;;4.10;3.20;;;;;;;9.76;60.59;97293.01;110195;1242;59631;-68
2023/02/22 09:13:18;;;;;;;6.20;4.00;;;;;;;9.80;59.96;97294.52;110217;1242;71949;-67
2023/02/22 09:15:47;;;;;;;6.00;4.10;;;;;;;9.72;59.80;97294.52;110182;1242;69637;-67
2023/02/22 09:18:16;;;;;;;5.20;3.50;;;;;;;9.72;59.78;97295.56;110178;1241;69057;-67
2023/02/22 09:20:46;;;;;;;6.00;4.00;;;;;;;9.73;60.86;97296.73;110229;1242;60169;-67
2023/02/22 09:23:15;;;;;;;5.40;3.40;;;;;;;9.73;59.78;97294.10;110280;1241;59740;-67
2023/02/22 09:25:44;;;;;;;4.50;3.30;;;;;;;9.75;59.28;97295.20;110185;1242;71359;-67
2023/02/22 09:28:13;;;;;;;4.90;3.30;;;;;;;9.75;59.83;97296.96;110246;1242;69298;-67
2023/02/22 09:30:42;;;;;;;7.60;4.00;;;;;;;9.68;58.76;97297.08;110224;1242;69720;-67
2023/02/22 09:33:17;;;;;;;5.10;3.70;;;;;;;9.50;58.59;97302.02;110187;1242;59690;-67
2023/02/22 09:35:48;;;;;;;5.40;3.90;;;;;;;9.23;58.31;97301.09;110081;1240;59736;-67
2023/02/22 09:38:23;;;;;;;6.00;4.20;;;;;;;9.32;57.84;97306.92;110235;1242;71358;-67
2023/02/22 09:41:00;;;;;;;5.30;3.40;;;;;;;9.14;57.81;97304.83;110248;1243;69675;-65
2023/02/22 09:43:31;;;;;;;5.30;3.40;;;;;;;9.17;57.58;97304.41;110168;1241;70053;-66
2023/02/22 09:46:17;;;;;;;4.70;3.30;;;;;;;9.42;58.72;97305.68;110200;1242;59699;-66
2023/02/22 09:49:05;;;;;;;5.70;3.70;;;;;;;9.68;57.48;97300.87;110204;1242;59627;-68
2023/02/22 09:51:49;;;;;;;5.00;3.40;;;;;;;9.82;56.36;97297.31;110187;1242;72016;-68
2023/02/22 09:54:35;;;;;;;5.80;3.60;;;;;;;9.94;57.05;97296.41;110226;1241;69830;-66
2023/02/22 09:57:08;;;;;;;5.80;3.90;;;;;;;9.99;56.54;97296.37;110194;1242;69209;-68
2023/02/22 09:59:47;;;;;;;5.10;3.50;;;;;;;10.02;55.38;97295.18;110205;1241;59049;-66
2023/02/22 10:02:37;;;;;;;4.20;2.90;;;;;;;10.28;56.74;97291.38;110237;1241;59663;-67
2023/02/22 10:05:33;;;;;;;4.10;3.10;;;;;;;10.59;54.73;97292.41;110195;1241;71959;-66
2023/02/22 10:08:04;;;;;;;4.20;3.10;;;;;;;11.10;52.70;97287.50;110208;1242;69798;-67
2023/02/22 10:10:40;;;;;;;5.50;2.90;;;;;;;11.51;52.33;97289.69;110203;1240;67450;-68
2023/02/22 10:13:26;;;;;;;5.30;3.00;;;;;;;12.15;52.20;97292.09;110157;1241;59663;-67
2023/02/22 10:15:58;;;;;;;5.40;3.30;;;;;;;12.45;48.61;97288.28;110242;1242;59631;-67
2023/02/22 10:18:45;;;;;;;5.00;3.60;;;;;;;12.50;48.10;97286.44;110182;1240;71086;-67
2023/02/22 10:21:38;;;;;;;5.80;3.10;;;;;;;12.73;49.05;97285.95;110234;1242;68767;-67
2023/02/22 10:24:59;;;;;;;3.90;3.00;;;;;;;12.49;46.97;97284.16;110244;1249;69369;-67
2023/02/22 10:27:41;;;;;;;6.50;4.50;;;;;;;12.19;47.85;97278.89;109897;1242;59718;-66
2023/02/22 10:30:42;;;;;;;5.70;4.30;;;;;;;12.06;48.89;97273.30;110247;1242;59678;-66
2023/02/22 10:33:26;;;;;;;6.70;4.20;;;;;;;11.46;49.46;97272.29;110154;1245;72182;-67
2023/02/22 10:35:55;;;;;;;8.40;4.50;;;;;;;11.32;50.24;97273.43;110241;1242;68293;-66
2023/02/22 10:38:26;;;;;;;7.20;5.00;;;;;;;11.25;50.52;97272.55;110180;1242;69712;-67
2023/02/22 10:41:00;;;;;;;6.40;4.50;;;;;;;11.13;51.05;97269.27;110185;1242;59762;-67
2023/02/22 10:43:29;;;;;;;9.50;5.40;;;;;;;10.99;51.49;97265.50;110207;1241;59762;-68
2023/02/22 10:46:06;;;;;;;5.50;4.60;;;;;;;10.61;52.13;97266.13;110246;1242;70735;-67
2023/02/22 10:48:38;;;;;;;6.80;4.70;;;;;;;10.49;53.04;97268.58;110180;1242;69039;-67
2023/02/22 10:51:09;;;;;;;9.40;5.40;;;;;;;10.36;52.99;97265.70;110186;1242;69691;-67
2023/02/22 10:53:38;;;;;;;8.70;4.40;;;;;;;10.39;53.47;97261.50;110223;1242;59868;-67
2023/02/22 10:56:11;;;;;;;5.00;3.70;;;;;;;10.45;54.13;97261.19;110238;1242;59701;-67
2023/02/22 10:58:49;;;;;;;5.80;4.10;;;;;;;10.39;52.77;97264.56;110166;1240;71240;-67
2023/02/22 11:01:29;;;;;;;7.70;3.50;;;;;;;10.41;52.71;97258.70;110165;1241;68711;-68
2023/02/22 11:04:04;;;;;;;8.10;4.30;;;;;;;10.25;52.81;97255.89;110166;1242;69244;-68
2023/02/22 11:06:34;;;;;;;5.20;4.00;;;;;;;10.12;53.21;97252.82;110168;1240;59667;-68
2023/02/22 11:09:04;;;;;;;7.80;3.90;;;;;;;10.11;53.11;97253.39;110213;1242;59599;-67
2023/02/22 11:11:33;;;;;;;7.90;4.30;;;;;;;10.22;53.58;97259.77;110195;1241;71987;-66
2023/02/22 11:14:04;;;;;;;6.90;4.00;;;;;;;10.15;53.08;97254.85;110148;1242;69148;-66
2023/02/22 11:16:37;;;;;;;4.90;3.30;;;;;;;10.29;53.12;97252.27;110186;1241;69474;-67
2023/02/22 11:19:14;;;;;;;7.00;4.70;;;;;;;10.60;52.87;97250.33;110174;1242;59738;-66
2023/02/22 11:21:44;;;;;;;4.50;3.80;;;;;;;10.52;51.81;97246.23;110163;1240;59674;-66
2023/02/22 11:24:15;;;;;;;6.20;3.70;;;;;;;10.64;52.04;97246.71;110150;1242;71355;-67
2023/02/22 11:26:45;;;;;;;6.50;3.70;;;;;;;10.81;52.67;97247.86;110201;1242;69772;-68
2023/02/22 11:29:31;;;;;;;5.80;3.40;;;;;;;10.93;52.56;97244.52;110151;1242;69835;-68
2023/02/22 11:32:23;;;;;;;6.20;3.70;;;;;;;10.97;52.09;97241.24;110205;1242;59672;-66
2023/02/22 11:35:12;;;;;;;5.60;3.20;;;;;;;10.92;51.29;97246.65;110218;1242;60084;-68
2023/02/22 11:37:41;;;;;;;5.50;3.50;;;;;;;10.78;51.02;97245.48;110185;1240;71363;-67
2023/02/22 11:40:21;;;;;;;7.20;4.20;;;;;;;11.01;51.88;97245.31;110182;1242;69794;-67
2023/02/22 11:43:13;;;;;;;5.20;3.90;;;;;;;10.94;51.20;97241.43;110222;1241;68350;-67
2023/02/22 11:46:04;;;;;;;5.30;3.80;;;;;;;10.65;50.81;97240.52;110192;1241;59742;-67
2023/02/22 11:48:40;;;;;;;7.10;4.10;;;;;;;11.03;50.93;97238.48;110192;1240;59686;-67
2023/02/22 11:51:20;;;;;;;4.80;3.30;;;;;;;11.27;50.82;97236.45;110162;1242;71392;-67
2023/02/22 11:54:02;;;;;;;5.70;3.50;;;;;;;11.55;50.51;97238.40;110167;1242;69130;-67
2023/02/22 11:56:44;;;;;;;5.80;4.00;;;;;;;12.05;49.94;97233.02;110122;1241;70038;-67
2023/02/22 11:59:47;;;;;;;6.50;4.40;;;;;;;13.00;47.50;97236.65;110123;1242;60067;-67
2023/02/22 12:02:44;;;;;;;6.60;3.40;;;;;;;14.39;45.09;97229.27;110171;1242;59627;-67
2023/02/22 12:05:38;;;;;;;6.20;3.80;;;;;;;15.34;41.76;97226.98;110161;1246;70919;-68